createdAt,value
2023-04-03T00:02:41.816Z,1.50
2023-04-03T00:07:43.645Z,1.60
2023-04-03T00:12:45.301Z,1.70
2023-04-03T00:17:46.992Z,1.70
2023-04-03T00:22:48.604Z,1.80
2023-04-03T00:27:50.307Z,1.80
2023-04-03T00:32:53.769Z,2.58
2023-04-03T00:37:56.556Z,1.80
2023-04-03T00:43:00.431Z,1.63
2023-04-03T00:48:06.695Z,1.70
2023-04-03T00:53:11.264Z,1.77
2023-04-03T00:58:13.252Z,1.83
2023-04-03T01:03:14.867Z,1.83
2023-04-03T01:08:16.644Z,1.50
2023-04-03T01:13:22.033Z,1.47
2023-04-03T01:18:27.366Z,1.43
2023-04-03T01:23:41.180Z,1.70
2023-04-03T01:28:42.958Z,1.80
2023-04-03T01:33:44.833Z,1.87
2023-04-03T01:38:46.713Z,1.90
2023-04-03T01:43:49.479Z,1.90
2023-04-03T01:48:51.140Z,1.70
2023-04-03T01:53:52.957Z,1.40
2023-04-03T01:58:54.635Z,1.67
2023-04-03T02:03:56.316Z,2.00
2023-04-03T02:08:58.047Z,1.73
2023-04-03T02:13:59.636Z,1.80
2023-04-03T02:19:01.461Z,1.60
2023-04-03T02:24:05.215Z,1.87
2023-04-03T02:29:06.878Z,1.83
2023-04-03T02:34:10.491Z,1.73
2023-04-03T02:39:12.519Z,1.93
2023-04-03T02:44:14.500Z,1.70
2023-04-03T02:49:16.506Z,1.70
2023-04-03T02:54:18.241Z,1.90
2023-04-03T02:59:24.615Z,1.77
2023-04-03T03:04:26.377Z,2.33
2023-04-03T03:09:28.172Z,1.73
2023-04-03T03:14:29.895Z,1.97
2023-04-03T03:19:31.507Z,1.90
2023-04-03T03:24:33.195Z,1.80
2023-04-03T03:29:34.829Z,1.60
2023-04-03T03:34:38.304Z,1.87
2023-04-03T03:39:41.114Z,1.77
2023-04-03T03:44:42.804Z,1.87
2023-04-03T03:49:44.523Z,1.90
2023-04-03T03:54:46.538Z,1.80
2023-04-03T03:59:49.710Z,1.67
2023-04-03T04:04:53.567Z,2.10
2023-04-03T04:09:55.676Z,2.20
2023-04-03T04:14:57.539Z,1.80
2023-04-03T04:20:00.096Z,2.20
2023-04-03T04:25:02.289Z,1.90
2023-04-03T04:30:05.417Z,2.67
2023-04-03T04:35:08.519Z,2.30
2023-04-03T04:40:14.715Z,2.47
2023-04-03T04:45:16.822Z,2.20
2023-04-03T04:50:20.828Z,2.00
2023-04-03T04:55:22.659Z,2.53
2023-04-03T05:00:25.924Z,2.27
2023-04-03T05:05:27.670Z,2.30
2023-04-03T05:10:29.717Z,2.10
2023-04-03T05:15:31.691Z,2.33
2023-04-03T05:20:33.925Z,2.13
2023-04-03T05:25:35.911Z,2.40
2023-04-03T05:30:38.490Z,2.27
2023-04-03T05:35:42.260Z,2.43
2023-04-03T05:40:47.162Z,2.60
2023-04-03T05:45:49.255Z,2.63
2023-04-03T05:50:51.597Z,2.30
2023-04-03T05:55:58.537Z,2.17
2023-04-03T06:01:01.562Z,2.47
2023-04-03T06:06:05.378Z,2.80
2023-04-03T06:11:07.156Z,2.43
2023-04-03T06:16:12.644Z,2.33
2023-04-03T06:21:14.928Z,2.10
2023-04-03T06:26:16.628Z,2.57
2023-04-03T06:31:18.325Z,2.40
2023-04-03T06:36:21.651Z,2.60
2023-04-03T06:41:23.493Z,2.30
2023-04-03T06:46:27.093Z,2.13
2023-04-03T06:51:30.102Z,1.97
2023-04-03T06:56:31.811Z,2.10
2023-04-03T07:01:33.710Z,2.10
2023-04-03T07:06:35.977Z,2.10
2023-04-03T07:11:37.678Z,2.50
2023-04-03T07:16:41.100Z,2.60
2023-04-03T07:21:44.428Z,2.17
2023-04-03T07:26:46.419Z,2.10
2023-04-03T07:31:48.672Z,2.37
2023-04-03T07:36:50.372Z,2.10
2023-04-03T07:41:52.133Z,2.23
2023-04-03T07:46:53.790Z,2.67
2023-04-03T07:51:56.600Z,2.13
2023-04-03T07:56:58.676Z,1.93
2023-04-03T08:02:00.613Z,2.23
2023-04-03T08:07:02.446Z,2.63
2023-04-03T08:12:04.192Z,2.10
2023-04-03T08:17:06.472Z,2.13
2023-04-03T08:22:08.340Z,2.13
2023-04-03T08:27:09.999Z,2.10
2023-04-03T08:32:11.906Z,3.00
2023-04-03T08:37:13.538Z,2.27
2023-04-03T08:42:21.126Z,1.87
2023-04-03T08:47:27.412Z,1.90
2023-04-03T08:52:50.105Z,1.70
2023-04-03T08:58:05.340Z,1.80
2023-04-03T09:03:13.764Z,2.00
2023-04-03T09:08:24.001Z,1.70
2023-04-03T09:13:39.493Z,2.23
2023-04-03T09:18:44.288Z,1.73
2023-04-03T09:23:49.306Z,2.23
2023-04-03T09:28:51.451Z,1.70
2023-04-03T09:34:01.581Z,1.70
2023-04-03T09:39:08.995Z,1.80
2023-04-03T09:44:22.371Z,1.60
2023-04-03T09:49:24.009Z,1.50
2023-04-03T09:54:41.378Z,1.73
2023-04-03T09:59:49.098Z,1.93
2023-04-03T10:04:58.741Z,1.07
2023-04-03T10:10:16.163Z,1.40
2023-04-03T10:15:22.495Z,1.70
2023-04-03T10:20:48.330Z,1.80
2023-04-03T10:26:13.997Z,1.80
2023-04-03T10:31:27.768Z,1.87
2023-04-03T10:36:51.525Z,1.40
2023-04-03T10:41:58.048Z,1.47
2023-04-03T10:47:25.653Z,1.67
2023-04-03T10:52:47.700Z,1.30
2023-04-03T10:57:51.286Z,1.63
2023-04-03T11:02:58.874Z,1.70
2023-04-03T11:08:06.356Z,1.40
2023-04-03T11:13:10.380Z,1.00
2023-04-03T11:18:25.109Z,1.10
2023-04-03T11:23:30.388Z,1.60
2023-04-03T11:28:38.144Z,1.33
2023-04-03T11:33:58.224Z,1.20
2023-04-03T11:39:18.011Z,1.70
2023-04-03T11:44:37.644Z,0.97
2023-04-03T11:50:04.544Z,1.20
2023-04-03T11:55:24.212Z,1.40
2023-04-03T12:00:44.336Z,1.23
2023-04-03T12:05:45.943Z,1.40
2023-04-03T12:11:15.481Z,1.80
2023-04-03T12:16:40.147Z,1.70
2023-04-03T12:21:47.705Z,1.20
2023-04-03T12:27:04.096Z,1.43
2023-04-03T12:32:06.201Z,1.57
2023-04-03T12:37:29.247Z,1.30
2023-04-03T12:42:57.918Z,1.20
2023-04-03T12:48:03.592Z,1.27
2023-04-03T12:53:07.616Z,1.40
2023-04-03T12:58:27.592Z,1.40
2023-04-03T13:03:29.678Z,1.40
2023-04-03T13:08:31.727Z,1.40
2023-04-03T13:13:33.466Z,1.50
2023-04-03T13:18:36.351Z,1.33
2023-04-03T13:23:40.765Z,1.57
2023-04-03T13:28:42.832Z,1.43
2023-04-03T13:33:57.589Z,1.50
2023-04-03T13:39:19.118Z,1.60
2023-04-03T13:44:23.441Z,1.70
2023-04-03T13:49:35.189Z,1.13
2023-04-03T13:54:39.480Z,1.20
2023-04-03T13:59:41.219Z,1.30
2023-04-03T14:04:45.885Z,1.67
2023-04-03T14:09:47.544Z,1.60
2023-04-03T14:14:49.231Z,1.43
2023-04-03T14:19:52.499Z,1.37
2023-04-03T14:24:54.230Z,1.70
2023-04-03T14:29:59.135Z,1.47
2023-04-03T14:35:01.560Z,1.40
2023-04-03T14:40:09.559Z,1.40
2023-04-03T14:45:12.982Z,1.70
2023-04-03T14:50:18.428Z,1.50
2023-04-03T14:55:22.357Z,1.77
2023-04-03T15:00:24.214Z,1.47
2023-04-03T15:05:26.257Z,1.70
2023-04-03T15:10:29.977Z,1.50
2023-04-03T15:15:32.073Z,1.73
2023-04-03T15:20:34.653Z,1.60
2023-04-03T15:25:36.297Z,1.27
2023-04-03T15:30:40.847Z,2.37
2023-04-03T15:35:43.111Z,1.50
2023-04-03T15:40:44.917Z,1.30
2023-04-03T15:45:46.654Z,1.63
2023-04-03T15:50:48.678Z,1.40
2023-04-03T15:55:51.233Z,1.60
2023-04-03T16:00:53.304Z,1.57
2023-04-03T16:05:55.051Z,1.40
2023-04-03T16:10:56.658Z,1.57
2023-04-03T16:15:58.297Z,1.50
2023-04-03T16:21:00.043Z,3.90
2023-04-03T16:26:01.734Z,2.10
2023-04-03T16:31:03.851Z,3.83
2023-04-03T16:36:06.210Z,1.50
2023-04-03T16:41:07.835Z,1.30
2023-04-03T16:46:09.520Z,2.00
2023-04-03T16:51:11.179Z,1.60
2023-04-03T16:56:12.782Z,1.77
2023-04-03T17:01:16.716Z,1.70
2023-04-03T17:06:20.427Z,1.53
2023-04-03T17:11:22.218Z,1.70
2023-04-03T17:16:24.679Z,1.87
2023-04-03T17:21:26.565Z,1.67
2023-04-03T17:26:28.348Z,1.67
2023-04-03T17:31:30.038Z,1.80
2023-04-03T17:36:33.483Z,1.87
2023-04-03T17:41:35.324Z,2.03
2023-04-03T17:46:36.952Z,2.00
2023-04-03T17:51:38.605Z,1.60
2023-04-03T17:56:41.728Z,1.80
2023-04-03T18:01:45.189Z,2.70
2023-04-03T18:06:48.869Z,2.03
2023-04-03T18:11:51.496Z,1.57
2023-04-03T18:16:53.268Z,1.60
2023-04-03T18:22:00.995Z,1.60
2023-04-03T18:27:06.269Z,1.90
2023-04-03T18:32:09.085Z,2.23
2023-04-03T18:37:10.840Z,2.60
2023-04-03T18:42:18.244Z,2.23
2023-04-03T18:47:19.994Z,2.13
2023-04-03T18:52:21.802Z,2.73
2023-04-03T18:57:24.438Z,2.40
2023-04-03T19:02:26.968Z,2.40
2023-04-03T19:07:28.726Z,3.00
2023-04-03T19:12:30.522Z,3.30
2023-04-03T19:17:32.684Z,3.53
2023-04-03T19:22:34.419Z,3.60
2023-04-03T19:27:36.523Z,3.63
2023-04-03T19:32:38.227Z,3.53
2023-04-03T19:37:39.881Z,2.90
2023-04-03T19:42:42.979Z,2.87
2023-04-03T19:47:45.110Z,3.13
2023-04-03T19:52:46.755Z,2.97
2023-04-03T19:57:48.451Z,2.80
2023-04-03T20:02:50.818Z,2.77
2023-04-03T20:07:52.634Z,2.57
2023-04-03T20:12:54.245Z,2.53
2023-04-03T20:17:56.004Z,2.93
2023-04-03T20:22:59.241Z,2.57
2023-04-03T20:28:00.868Z,2.87
2023-04-03T20:33:03.934Z,2.40
2023-04-03T20:38:07.190Z,2.50
2023-04-03T20:43:09.208Z,2.40
2023-04-03T20:48:13.096Z,2.43
2023-04-03T20:53:17.899Z,3.40
2023-04-03T20:58:19.844Z,2.97
2023-04-03T21:03:26.627Z,2.90
2023-04-03T21:09:05.868Z,2.50
2023-04-03T21:14:45.910Z,2.53
2023-04-03T21:19:48.720Z,2.50
2023-04-03T21:24:50.650Z,2.40
2023-04-03T21:29:52.342Z,2.30
2023-04-03T21:34:53.990Z,2.30
2023-04-03T21:39:55.601Z,2.53
2023-04-03T21:44:58.255Z,2.40
2023-04-03T21:49:59.839Z,2.53
2023-04-03T21:55:01.631Z,2.40
2023-04-03T22:00:05.026Z,2.47
2023-04-03T22:05:07.410Z,2.23
2023-04-03T22:10:09.003Z,2.43
2023-04-03T22:15:10.725Z,2.20
2023-04-03T22:20:12.337Z,2.40
2023-04-03T22:25:13.941Z,2.40
2023-04-03T22:30:15.505Z,2.43
2023-04-03T22:35:17.087Z,2.47
2023-04-03T22:40:18.737Z,2.17
2023-04-03T22:45:20.627Z,2.53
2023-04-03T22:50:22.473Z,1.90
2023-04-03T22:55:24.977Z,2.40
2023-04-03T23:00:28.061Z,2.37
2023-04-03T23:05:30.961Z,2.17
2023-04-03T23:10:32.552Z,2.13
2023-04-03T23:15:34.146Z,2.13
2023-04-03T23:20:35.753Z,2.20
2023-04-03T23:25:37.759Z,2.30
2023-04-03T23:30:39.472Z,2.10
2023-04-03T23:35:46.531Z,2.50
2023-04-03T23:40:48.252Z,2.23
2023-04-03T23:45:49.854Z,2.30
2023-04-03T23:50:51.918Z,2.27
2023-04-03T23:55:53.534Z,2.00
